createdAt,value
2022-12-03T00:01:28.642Z,3.52
2022-12-03T00:03:56.701Z,2.93
2022-12-03T00:06:25.688Z,4.10
2022-12-03T00:08:55.103Z,5.37
2022-12-03T00:11:23.002Z,6.07
2022-12-03T00:13:50.896Z,6.13
2022-12-03T00:16:18.918Z,4.78
2022-12-03T00:18:46.803Z,3.50
2022-12-03T00:21:14.718Z,2.96
2022-12-03T00:23:42.672Z,4.18
2022-12-03T00:26:10.620Z,5.63
2022-12-03T00:28:38.563Z,6.43
2022-12-03T00:31:06.616Z,6.25
2022-12-03T00:33:34.534Z,5.01
2022-12-03T00:36:02.424Z,3.77
2022-12-03T00:38:30.317Z,2.88
2022-12-03T00:40:58.177Z,2.67
2022-12-03T00:43:32.682Z,4.31
2022-12-03T00:46:00.653Z,5.70
2022-12-03T00:48:28.646Z,6.41
2022-12-03T00:50:56.518Z,6.52
2022-12-03T00:53:24.415Z,5.15
2022-12-03T00:55:52.371Z,3.72
2022-12-03T00:58:20.285Z,3.01
2022-12-03T01:00:48.214Z,4.08
2022-12-03T01:03:16.178Z,5.40
2022-12-03T01:05:47.783Z,6.25
2022-12-03T01:08:15.799Z,6.31
2022-12-03T01:10:43.808Z,4.94
2022-12-03T01:13:11.705Z,3.63
2022-12-03T01:15:39.671Z,3.04
2022-12-03T01:18:07.718Z,4.31
2022-12-03T01:20:36.563Z,5.66
2022-12-03T01:23:04.917Z,6.51
2022-12-03T01:25:32.824Z,6.69
2022-12-03T01:28:00.820Z,5.24
2022-12-03T01:30:28.805Z,3.78
2022-12-03T01:32:56.690Z,3.15
2022-12-03T01:35:24.558Z,4.38
2022-12-03T01:37:52.453Z,5.80
2022-12-03T01:40:22.089Z,6.35
2022-12-03T01:42:50.045Z,5.10
2022-12-03T01:45:23.005Z,3.72
2022-12-03T01:47:51.189Z,3.12
2022-12-03T01:50:30.285Z,4.33
2022-12-03T01:53:01.573Z,5.71
2022-12-03T01:55:29.949Z,6.39
2022-12-03T01:58:00.888Z,6.67
2022-12-03T02:00:30.048Z,5.30
2022-12-03T02:03:01.441Z,3.91
2022-12-03T02:05:31.836Z,2.92
2022-12-03T02:08:00.303Z,2.60
2022-12-03T02:10:32.473Z,3.90
2022-12-03T02:13:04.843Z,5.50
2022-12-03T02:15:32.854Z,6.52
2022-12-03T02:18:00.883Z,6.69
2022-12-03T02:20:33.383Z,5.29
2022-12-03T02:23:13.763Z,3.85
2022-12-03T02:25:41.649Z,3.31
2022-12-03T02:28:10.125Z,4.78
2022-12-03T02:30:38.096Z,6.15
2022-12-03T02:33:06.290Z,6.59
2022-12-03T02:35:35.992Z,5.23
2022-12-03T02:38:17.190Z,3.86
2022-12-03T02:40:47.173Z,3.23
2022-12-03T02:43:18.184Z,4.68
2022-12-03T02:45:50.905Z,6.08
2022-12-03T02:48:32.664Z,6.55
2022-12-03T02:51:05.355Z,5.00
2022-12-03T02:53:42.527Z,3.66
2022-12-03T02:56:13.858Z,3.13
2022-12-03T02:58:45.889Z,4.45
2022-12-03T03:01:17.133Z,5.83
2022-12-03T03:03:46.905Z,6.55
2022-12-03T03:06:16.012Z,6.54
2022-12-03T03:08:44.199Z,5.08
2022-12-03T03:11:12.217Z,3.69
2022-12-03T03:13:40.771Z,3.11
2022-12-03T03:16:09.111Z,4.32
2022-12-03T03:18:37.278Z,5.46
2022-12-03T03:21:05.485Z,6.13
2022-12-03T03:23:33.638Z,6.71
2022-12-03T03:26:10.501Z,6.54
2022-12-03T03:28:42.692Z,5.02
2022-12-03T03:31:13.218Z,3.66
2022-12-03T03:33:43.667Z,3.13
2022-12-03T03:36:13.173Z,4.50
2022-12-03T03:38:41.937Z,5.82
2022-12-03T03:41:12.686Z,6.47
2022-12-03T03:43:42.467Z,6.42
2022-12-03T03:46:12.163Z,5.09
2022-12-03T03:48:42.790Z,3.73
2022-12-03T03:51:11.878Z,3.16
2022-12-03T03:53:43.016Z,4.48
2022-12-03T03:56:11.741Z,5.82
2022-12-03T03:58:39.731Z,6.70
2022-12-03T04:01:09.550Z,6.59
2022-12-03T04:03:37.557Z,5.10
2022-12-03T04:06:06.396Z,3.73
2022-12-03T04:08:34.391Z,3.16
2022-12-03T04:11:20.851Z,4.47
2022-12-03T04:13:48.814Z,6.13
2022-12-03T04:16:16.813Z,6.81
2022-12-03T04:18:44.967Z,6.84
2022-12-03T04:21:39.959Z,5.48
2022-12-03T04:24:10.617Z,3.78
2022-12-03T04:26:57.077Z,3.22
2022-12-03T04:29:25.169Z,4.77
2022-12-03T04:32:11.373Z,6.10
2022-12-03T04:34:57.801Z,6.99
2022-12-03T04:37:25.886Z,6.93
2022-12-03T04:39:53.776Z,5.40
2022-12-03T04:42:21.854Z,4.00
2022-12-03T04:44:50.173Z,3.42
2022-12-03T04:47:20.143Z,4.70
2022-12-03T04:49:51.599Z,5.88
2022-12-03T04:52:20.866Z,6.59
2022-12-03T04:54:48.936Z,7.10
2022-12-03T04:57:17.401Z,7.04
2022-12-03T04:59:45.328Z,5.60
2022-12-03T05:02:13.350Z,4.19
2022-12-03T05:04:41.977Z,3.52
2022-12-03T05:07:11.501Z,4.87
2022-12-03T05:09:39.488Z,6.08
2022-12-03T05:12:07.454Z,6.80
2022-12-03T05:14:36.518Z,6.89
2022-12-03T05:17:04.503Z,5.48
2022-12-03T05:19:50.737Z,4.09
2022-12-03T05:22:18.638Z,3.51
2022-12-03T05:24:46.566Z,4.86
2022-12-03T05:27:15.802Z,6.14
2022-12-03T05:29:46.743Z,6.98
2022-12-03T05:32:15.119Z,6.78
2022-12-03T05:34:43.001Z,5.33
2022-12-03T05:37:11.183Z,4.03
2022-12-03T05:39:39.050Z,3.44
2022-12-03T05:42:25.365Z,4.56
2022-12-03T05:44:53.527Z,5.99
2022-12-03T05:47:21.540Z,6.74
2022-12-03T05:49:49.449Z,6.74
2022-12-03T05:52:17.315Z,5.33
2022-12-03T05:54:45.187Z,3.91
2022-12-03T05:57:13.106Z,3.26
2022-12-03T05:59:40.981Z,4.41
2022-12-03T06:02:08.936Z,5.59
2022-12-03T06:04:38.874Z,6.51
2022-12-03T06:07:11.039Z,7.05
2022-12-03T06:09:41.827Z,6.65
2022-12-03T06:12:09.842Z,4.99
2022-12-03T06:14:37.742Z,3.56
2022-12-03T06:17:05.672Z,2.99
2022-12-03T06:19:34.189Z,4.23
2022-12-03T06:22:02.138Z,5.73
2022-12-03T06:24:30.131Z,6.36
2022-12-03T06:26:58.027Z,6.87
2022-12-03T06:29:25.925Z,6.75
2022-12-03T06:31:53.862Z,5.23
2022-12-03T06:34:21.757Z,3.79
2022-12-03T06:36:50.374Z,3.19
2022-12-03T06:39:18.290Z,4.54
2022-12-03T06:41:46.208Z,5.76
2022-12-03T06:44:14.253Z,6.51
2022-12-03T06:46:42.559Z,7.08
2022-12-03T06:49:10.556Z,6.97
2022-12-03T06:51:38.525Z,5.36
2022-12-03T06:54:06.665Z,3.96
2022-12-03T06:56:39.058Z,3.37
2022-12-03T06:59:11.305Z,4.75
2022-12-03T07:01:39.242Z,6.02
2022-12-03T07:04:07.159Z,6.72
2022-12-03T07:06:35.087Z,7.13
2022-12-03T07:09:03.859Z,6.19
2022-12-03T07:11:31.756Z,4.73
2022-12-03T07:14:05.019Z,4.00
2022-12-03T07:16:35.552Z,5.31
2022-12-03T07:19:05.323Z,6.40
2022-12-03T07:21:33.284Z,7.01
2022-12-03T07:24:01.665Z,6.97
2022-12-03T07:26:29.982Z,5.59
2022-12-03T07:28:58.473Z,4.25
2022-12-03T07:31:26.811Z,3.64
2022-12-03T07:33:55.445Z,4.86
2022-12-03T07:36:23.402Z,6.06
2022-12-03T07:38:51.341Z,6.97
2022-12-03T07:41:19.271Z,7.30
2022-12-03T07:43:47.191Z,5.81
2022-12-03T07:46:15.813Z,4.38
2022-12-03T07:48:43.752Z,3.72
2022-12-03T07:51:15.257Z,4.99
2022-12-03T07:53:43.677Z,6.41
2022-12-03T07:56:11.639Z,7.19
2022-12-03T07:58:39.892Z,7.15
2022-12-03T08:01:07.887Z,5.83
2022-12-03T08:03:36.244Z,4.44
2022-12-03T08:06:05.155Z,3.89
2022-12-03T08:08:33.011Z,5.06
2022-12-03T08:11:02.263Z,6.17
2022-12-03T08:13:30.566Z,6.83
2022-12-03T08:16:02.072Z,6.99
2022-12-03T08:18:29.992Z,5.65
2022-12-03T08:20:58.278Z,4.35
2022-12-03T08:23:26.435Z,3.83
2022-12-03T08:25:54.374Z,5.03
2022-12-03T08:28:25.856Z,6.33
2022-12-03T08:31:07.646Z,7.15
2022-12-03T08:33:37.556Z,7.20
2022-12-03T08:40:51.241Z,3.77
2022-12-03T08:43:22.181Z,3.51
2022-12-03T08:45:51.962Z,5.14
2022-12-03T08:48:40.723Z,6.54
2022-12-03T08:51:19.144Z,7.28
2022-12-03T08:53:49.598Z,7.21
2022-12-03T08:56:27.564Z,5.76
2022-12-03T08:59:03.009Z,4.37
2022-12-03T09:01:34.432Z,3.80
2022-12-03T09:04:19.374Z,5.20
2022-12-03T09:06:47.345Z,6.64
2022-12-03T09:09:16.239Z,7.62
2022-12-03T09:11:44.453Z,7.72
2022-12-03T09:14:18.378Z,6.24
2022-12-03T09:16:48.017Z,4.82
2022-12-03T09:19:16.271Z,4.31
2022-12-03T09:21:44.819Z,5.67
2022-12-03T09:24:12.732Z,7.11
2022-12-03T09:26:40.643Z,7.89
2022-12-03T09:29:12.163Z,7.94
2022-12-03T09:31:41.259Z,6.55
2022-12-03T09:34:10.010Z,5.25
2022-12-03T09:36:38.040Z,4.68
2022-12-03T09:39:06.806Z,6.14
2022-12-03T09:41:34.957Z,7.41
2022-12-03T09:44:04.450Z,7.69
2022-12-03T09:46:36.215Z,6.26
2022-12-03T09:49:12.360Z,4.90
2022-12-03T09:51:45.121Z,4.45
2022-12-03T09:54:26.409Z,5.85
2022-12-03T09:56:56.141Z,7.05
2022-12-03T09:59:27.840Z,7.45
2022-12-03T10:01:56.170Z,6.03
2022-12-03T10:04:24.691Z,4.71
2022-12-03T10:06:52.733Z,3.98
2022-12-03T10:09:28.986Z,5.14
2022-12-03T10:11:59.109Z,6.39
2022-12-03T10:14:27.929Z,7.13
2022-12-03T10:16:56.648Z,7.76
2022-12-03T10:19:27.528Z,7.02
2022-12-03T10:21:55.873Z,5.45
2022-12-03T10:24:32.426Z,4.30
2022-12-03T10:27:03.166Z,3.98
2022-12-03T10:29:37.258Z,5.68
2022-12-03T10:32:10.500Z,6.96
2022-12-03T10:34:40.428Z,7.12
2022-12-03T10:37:11.254Z,5.64
2022-12-03T10:39:59.313Z,4.30
2022-12-03T10:42:30.584Z,3.98
2022-12-03T10:45:14.535Z,5.52
2022-12-03T10:47:44.186Z,6.90
2022-12-03T10:50:19.623Z,7.62
2022-12-03T10:52:48.070Z,7.65
2022-12-03T10:55:16.393Z,6.26
2022-12-03T10:57:46.380Z,4.95
2022-12-03T11:00:19.672Z,4.39
2022-12-03T11:02:56.127Z,5.53
2022-12-03T11:05:27.539Z,6.84
2022-12-03T11:07:56.221Z,7.58
2022-12-03T11:10:25.104Z,7.72
2022-12-03T11:13:36.732Z,6.49
2022-12-03T11:16:10.846Z,4.91
2022-12-03T11:18:38.833Z,4.47
2022-12-03T11:21:08.601Z,5.86
2022-12-03T11:23:45.562Z,7.21
2022-12-03T11:26:18.812Z,7.36
2022-12-03T11:28:47.677Z,6.06
2022-12-03T11:31:47.802Z,4.88
2022-12-03T11:34:18.940Z,4.49
2022-12-03T11:37:11.559Z,5.82
2022-12-03T11:39:48.152Z,7.02
2022-12-03T11:42:25.682Z,7.75
2022-12-03T11:45:02.915Z,7.78
2022-12-03T11:47:42.135Z,6.40
2022-12-03T11:50:28.304Z,5.16
2022-12-03T11:53:08.761Z,4.81
2022-12-03T11:55:40.267Z,6.17
2022-12-03T11:58:24.710Z,7.17
2022-12-03T12:00:56.500Z,7.76
2022-12-03T12:03:27.976Z,7.69
2022-12-03T12:06:11.245Z,6.31
2022-12-03T12:08:42.103Z,5.04
2022-12-03T12:11:33.324Z,4.53
2022-12-03T12:14:06.227Z,6.26
2022-12-03T12:16:43.277Z,7.64
2022-12-03T12:19:40.145Z,7.99
2022-12-03T12:22:13.972Z,6.38
2022-12-03T12:24:47.095Z,5.09
2022-12-03T12:27:19.809Z,4.62
2022-12-03T12:29:56.778Z,5.87
2022-12-03T12:32:45.916Z,7.12
2022-12-03T12:35:14.511Z,7.86
2022-12-03T12:38:00.185Z,7.89
2022-12-03T12:40:30.767Z,6.40
2022-12-03T12:43:12.027Z,5.09
2022-12-03T12:45:43.446Z,4.59
2022-12-03T12:48:41.011Z,5.85
2022-12-03T12:51:19.723Z,7.19
2022-12-03T12:53:48.997Z,7.73
2022-12-03T12:56:27.390Z,7.84
2022-12-03T12:58:59.383Z,6.49
2022-12-03T13:01:30.919Z,5.17
2022-12-03T13:03:59.646Z,4.55
2022-12-03T13:06:35.316Z,5.74
2022-12-03T13:09:03.316Z,7.08
2022-12-03T13:11:37.125Z,7.74
2022-12-03T13:14:20.268Z,7.88
2022-12-03T13:16:50.670Z,6.40
2022-12-03T13:19:27.143Z,5.09
2022-12-03T13:21:57.576Z,4.62
2022-12-03T13:24:34.478Z,5.81
2022-12-03T13:27:20.616Z,7.05
2022-12-03T13:29:57.021Z,7.68
2022-12-03T13:32:32.484Z,8.19
2022-12-03T13:35:30.659Z,8.19
2022-12-03T13:37:59.331Z,6.41
2022-12-03T13:40:31.556Z,5.11
2022-12-03T13:43:19.367Z,4.52
2022-12-03T13:45:50.075Z,5.73
2022-12-03T13:48:34.778Z,7.10
2022-12-03T13:51:19.695Z,7.89
2022-12-03T13:53:47.544Z,8.05
2022-12-03T13:56:28.813Z,6.67
2022-12-03T13:59:00.157Z,5.17
2022-12-03T14:01:29.016Z,4.65
2022-12-03T14:03:57.100Z,5.85
2022-12-03T14:06:25.037Z,7.05
2022-12-03T14:08:53.057Z,7.70
2022-12-03T14:11:39.381Z,8.13
2022-12-03T14:14:07.423Z,8.05
2022-12-03T14:16:35.410Z,6.62
2022-12-03T14:19:03.657Z,5.76
2022-12-03T14:21:31.595Z,6.87
2022-12-03T14:23:59.480Z,7.97
2022-12-03T14:26:27.335Z,8.19
2022-12-03T14:29:04.682Z,6.79
2022-12-03T14:31:35.226Z,5.28
2022-12-03T14:34:03.213Z,4.54
2022-12-03T14:36:31.083Z,5.73
2022-12-03T14:38:59.075Z,7.06
2022-12-03T14:41:45.502Z,7.81
2022-12-03T14:44:13.422Z,7.27
2022-12-03T14:46:41.656Z,5.57
2022-12-03T14:49:09.586Z,4.38
2022-12-03T14:51:37.492Z,5.18
2022-12-03T14:54:06.384Z,6.62
2022-12-03T14:56:34.261Z,7.41
2022-12-03T14:59:02.321Z,7.46
2022-12-03T15:01:30.411Z,6.00
2022-12-03T15:03:58.324Z,4.58
2022-12-03T15:06:26.248Z,3.86
2022-12-03T15:08:54.279Z,5.04
2022-12-03T15:11:22.339Z,6.49
2022-12-03T15:13:50.225Z,7.43
2022-12-03T15:16:18.123Z,7.54
2022-12-03T15:18:46.773Z,6.04
2022-12-03T15:21:14.689Z,4.54
2022-12-03T15:23:42.653Z,3.83
2022-12-03T15:26:10.658Z,5.11
2022-12-03T15:28:38.568Z,6.60
2022-12-03T15:31:06.518Z,7.52
2022-12-03T15:33:34.467Z,7.48
2022-12-03T15:36:02.398Z,6.01
2022-12-03T15:38:30.356Z,4.53
2022-12-03T15:40:58.356Z,3.87
2022-12-03T15:43:26.253Z,4.92
2022-12-03T15:45:54.582Z,6.21
2022-12-03T15:48:22.602Z,7.06
2022-12-03T15:50:50.467Z,7.68
2022-12-03T15:53:18.575Z,7.47
2022-12-03T15:55:47.213Z,5.94
2022-12-03T15:58:15.139Z,4.50
2022-12-03T16:00:43.022Z,4.37
2022-12-03T16:03:10.979Z,5.75
2022-12-03T16:05:38.952Z,6.87
2022-12-03T16:08:07.280Z,7.19
2022-12-03T16:10:35.243Z,5.94
2022-12-03T16:13:03.139Z,4.41
2022-12-03T16:15:31.177Z,3.90
2022-12-03T16:17:59.359Z,5.23
2022-12-03T16:20:27.540Z,6.24
2022-12-03T16:22:55.533Z,6.85
2022-12-03T16:25:23.429Z,7.27
2022-12-03T16:27:51.372Z,7.22
2022-12-03T16:30:19.303Z,5.81
2022-12-03T16:32:47.239Z,4.39
2022-12-03T16:35:15.144Z,3.86
2022-12-03T16:37:43.089Z,5.11
2022-12-03T16:40:11.649Z,6.23
2022-12-03T16:42:39.745Z,7.01
2022-12-03T16:45:08.755Z,7.34
2022-12-03T16:47:36.909Z,7.15
2022-12-03T16:50:07.747Z,5.61
2022-12-03T16:53:25.460Z,4.64
2022-12-03T16:55:53.374Z,6.14
2022-12-03T16:58:21.634Z,6.91
2022-12-03T17:00:53.404Z,6.74
2022-12-03T17:03:22.841Z,5.35
2022-12-03T17:05:54.833Z,4.44
2022-12-03T17:08:25.084Z,5.53
2022-12-03T17:10:53.015Z,6.65
2022-12-03T17:13:23.261Z,7.21
2022-12-03T17:15:51.340Z,7.02
2022-12-03T17:18:19.292Z,5.52
2022-12-03T17:20:47.272Z,4.46
2022-12-03T17:23:15.526Z,5.33
2022-12-03T17:25:43.588Z,6.33
2022-12-03T17:28:11.528Z,6.95
2022-12-03T17:30:39.530Z,7.20
2022-12-03T17:33:07.448Z,7.06
2022-12-03T17:35:35.322Z,5.56
2022-12-03T17:38:03.390Z,4.45
2022-12-03T17:40:31.415Z,5.35
2022-12-03T17:42:59.318Z,6.46
2022-12-03T17:45:27.208Z,6.97
2022-12-03T17:47:55.293Z,7.38
2022-12-03T17:50:25.818Z,7.13
2022-12-03T17:52:53.770Z,5.58
2022-12-03T17:55:33.866Z,4.58
2022-12-03T17:58:06.770Z,5.47
2022-12-03T18:00:34.834Z,6.49
2022-12-03T18:03:02.750Z,7.05
2022-12-03T18:05:30.612Z,7.46
2022-12-03T18:07:58.580Z,7.34
2022-12-03T18:10:28.795Z,5.80
2022-12-03T18:13:01.481Z,4.81
2022-12-03T18:15:30.962Z,5.87
2022-12-03T18:17:58.857Z,6.95
2022-12-03T18:20:26.870Z,7.43
2022-12-03T18:22:54.843Z,7.65
2022-12-03T18:25:22.835Z,7.14
2022-12-03T18:27:50.736Z,5.56
2022-12-03T18:30:20.883Z,4.67
2022-12-03T18:32:49.742Z,5.73
2022-12-03T18:35:18.119Z,6.93
2022-12-03T18:37:46.291Z,7.56
2022-12-03T18:40:20.182Z,7.78
2022-12-03T18:42:48.240Z,6.91
2022-12-03T18:45:18.961Z,5.36
2022-12-03T18:47:47.006Z,4.73
2022-12-03T18:50:15.008Z,5.88
2022-12-03T18:52:43.145Z,6.85
2022-12-03T18:55:17.916Z,7.47
2022-12-03T18:57:45.898Z,7.87
2022-12-03T19:00:14.874Z,8.08
2022-12-03T19:03:12.771Z,7.79
2022-12-03T19:05:40.823Z,5.87
2022-12-03T19:08:14.610Z,4.86
2022-12-03T19:10:45.686Z,5.58
2022-12-03T19:13:13.569Z,6.61
2022-12-03T19:15:41.515Z,7.28
2022-12-03T19:18:09.499Z,7.63
2022-12-03T19:20:40.509Z,7.95
2022-12-03T19:23:09.112Z,7.70
2022-12-03T19:25:39.683Z,6.18
2022-12-03T19:28:08.079Z,5.20
2022-12-03T19:30:36.068Z,5.90
2022-12-03T19:33:04.102Z,6.62
2022-12-03T19:35:41.613Z,7.14
2022-12-03T19:38:09.552Z,7.42
2022-12-03T19:40:37.542Z,7.57
2022-12-03T19:43:05.490Z,7.71
2022-12-03T19:45:36.541Z,7.82
2022-12-03T19:48:04.614Z,7.91
2022-12-03T19:50:34.112Z,7.50
2022-12-03T19:53:02.067Z,6.03
2022-12-03T19:55:29.984Z,5.02
2022-12-03T19:58:00.546Z,5.66
2022-12-03T20:00:28.480Z,6.50
2022-12-03T20:02:58.721Z,7.10
2022-12-03T20:05:31.765Z,7.75
2022-12-03T20:08:01.095Z,8.18
2022-12-03T20:10:29.090Z,8.56
2022-12-03T20:12:57.014Z,8.22
2022-12-03T20:15:25.227Z,6.68
2022-12-03T20:17:53.497Z,5.58
2022-12-03T20:20:23.863Z,6.51
2022-12-03T20:22:51.859Z,7.26
2022-12-03T20:25:19.869Z,7.79
2022-12-03T20:27:47.834Z,8.24
2022-12-03T20:30:15.834Z,8.14
2022-12-03T20:32:45.678Z,6.64
2022-12-03T20:35:13.767Z,5.56
2022-12-03T20:37:41.749Z,6.57
2022-12-03T20:40:10.195Z,7.48
2022-12-03T20:42:41.277Z,7.98
2022-12-03T20:45:09.900Z,8.30
2022-12-03T20:47:39.075Z,8.05
2022-12-03T20:50:07.907Z,6.49
2022-12-03T20:52:38.093Z,5.37
2022-12-03T20:55:06.521Z,6.22
2022-12-03T20:57:37.477Z,7.23
2022-12-03T21:00:08.488Z,7.90
2022-12-03T21:02:37.557Z,8.21
2022-12-03T21:05:06.082Z,7.87
2022-12-03T21:07:34.132Z,6.27
2022-12-03T21:10:02.948Z,5.30
2022-12-03T21:12:30.887Z,6.11
2022-12-03T21:14:58.765Z,7.01
2022-12-03T21:17:29.655Z,7.54
2022-12-03T21:19:57.744Z,7.86
2022-12-03T21:22:25.839Z,8.05
2022-12-03T21:24:53.865Z,8.18
2022-12-03T21:27:22.126Z,8.14
2022-12-03T21:29:50.398Z,6.66
2022-12-03T21:32:20.873Z,5.22
2022-12-03T21:34:48.817Z,4.72
2022-12-03T21:37:17.041Z,5.91
2022-12-03T21:39:45.791Z,6.89
2022-12-03T21:42:34.558Z,7.64
2022-12-03T21:45:01.642Z,8.16
2022-12-03T21:47:36.379Z,8.44
2022-12-03T21:50:09.623Z,7.11
2022-12-03T21:52:37.554Z,5.55
2022-12-03T21:55:09.389Z,4.99
2022-12-03T21:57:37.823Z,6.35
2022-12-03T22:00:09.296Z,7.42
2022-12-03T22:02:40.761Z,7.95
2022-12-03T22:05:10.519Z,8.31
2022-12-03T22:07:42.209Z,8.60
2022-12-03T22:10:13.348Z,8.44
2022-12-03T22:14:01.472Z,6.86
2022-12-03T22:16:54.456Z,5.02
2022-12-03T22:19:25.419Z,5.29
2022-12-03T22:21:53.331Z,6.77
2022-12-03T22:24:23.461Z,7.72
2022-12-03T22:26:53.570Z,8.09
2022-12-03T22:29:23.739Z,8.47
2022-12-03T22:31:51.867Z,8.07
2022-12-03T22:34:22.584Z,6.56
2022-12-03T22:36:50.456Z,5.48
2022-12-03T22:39:18.369Z,6.27
2022-12-03T22:41:47.765Z,7.46
2022-12-03T22:44:15.848Z,8.19
2022-12-03T22:46:43.864Z,8.46
2022-12-03T22:49:12.993Z,8.27
2022-12-03T22:51:46.792Z,6.87
2022-12-03T22:54:23.563Z,5.81
2022-12-03T22:56:51.860Z,6.70
2022-12-03T22:59:21.915Z,7.56
2022-12-03T23:01:49.825Z,7.83
2022-12-03T23:04:19.851Z,8.07
2022-12-03T23:06:50.214Z,8.32
2022-12-03T23:09:18.189Z,8.34
2022-12-03T23:11:48.443Z,8.14
2022-12-03T23:14:16.324Z,6.78
2022-12-03T23:17:59.233Z,5.69
2022-12-03T23:20:29.748Z,6.93
2022-12-03T23:22:57.614Z,7.55
2022-12-03T23:25:25.536Z,7.86
2022-12-03T23:27:53.415Z,8.13
2022-12-03T23:30:21.382Z,8.24
2022-12-03T23:32:49.391Z,8.21
2022-12-03T23:35:17.443Z,8.41
2022-12-03T23:37:45.394Z,8.25
2022-12-03T23:40:13.875Z,6.84
2022-12-03T23:42:41.725Z,5.85
2022-12-03T23:45:10.015Z,6.61
2022-12-03T23:47:37.863Z,7.39
2022-12-03T23:50:06.397Z,7.98
2022-12-03T23:52:36.242Z,8.26
2022-12-03T23:55:04.492Z,8.59
2022-12-03T23:57:32.551Z,8.44
